createdAt,value
2023-06-02T00:00:47.174Z,99.90
2023-06-02T00:03:19.375Z,99.90
2023-06-02T00:05:50.874Z,99.90
2023-06-02T00:08:23.747Z,99.90
2023-06-02T00:10:53.608Z,99.90
2023-06-02T00:13:23.926Z,99.90
2023-06-02T00:15:53.823Z,99.90
2023-06-02T00:18:24.339Z,99.90
2023-06-02T00:20:54.542Z,99.90
2023-06-02T00:23:30.233Z,99.90
2023-06-02T00:26:00.829Z,99.90
2023-06-02T00:28:31.104Z,99.90
2023-06-02T00:31:01.799Z,99.90
2023-06-02T00:33:31.713Z,99.90
2023-06-02T00:36:01.574Z,99.90
2023-06-02T00:38:34.046Z,99.90
2023-06-02T00:41:04.061Z,99.90
2023-06-02T00:43:33.996Z,99.90
2023-06-02T00:46:04.252Z,99.90
2023-06-02T00:48:34.273Z,99.90
2023-06-02T00:51:04.776Z,99.90
2023-06-02T00:53:37.748Z,99.90
2023-06-02T00:56:08.095Z,99.90
2023-06-02T00:58:39.469Z,99.90
2023-06-02T01:01:13.571Z,99.90
2023-06-02T01:03:45.570Z,99.90
2023-06-02T01:06:16.699Z,99.90
2023-06-02T01:08:49.695Z,99.90
2023-06-02T01:11:20.331Z,99.90
2023-06-02T01:13:52.127Z,99.90
2023-06-02T01:16:22.285Z,99.90
2023-06-02T01:18:54.301Z,99.90
2023-06-02T01:21:29.962Z,99.90
2023-06-02T01:24:04.885Z,99.90
2023-06-02T01:26:36.666Z,99.90
2023-06-02T01:29:08.892Z,99.90
2023-06-02T01:31:48.465Z,99.90
2023-06-02T01:34:27.623Z,99.90
2023-06-02T01:37:01.578Z,99.90
2023-06-02T01:40:26.105Z,99.90
2023-06-02T01:43:01.855Z,99.90
2023-06-02T01:45:33.663Z,99.90
2023-06-02T01:48:08.442Z,99.90
2023-06-02T01:50:42.126Z,99.90
2023-06-02T01:53:12.079Z,99.90
2023-06-02T01:55:42.436Z,99.90
2023-06-02T01:58:15.128Z,99.90
2023-06-02T02:00:45.427Z,99.90
2023-06-02T02:03:16.241Z,99.90
2023-06-02T02:05:46.779Z,99.90
2023-06-02T02:08:17.457Z,99.90
2023-06-02T02:10:47.622Z,99.90
2023-06-02T02:13:20.190Z,99.90
2023-06-02T02:15:50.975Z,99.90
2023-06-02T02:18:21.949Z,99.90
2023-06-02T02:20:52.056Z,99.90
2023-06-02T02:23:22.144Z,99.90
2023-06-02T02:25:52.004Z,99.90
2023-06-02T02:28:24.945Z,99.90
2023-06-02T02:30:55.046Z,99.90
2023-06-02T02:33:25.301Z,99.90
2023-06-02T02:35:55.564Z,99.90
2023-06-02T02:38:26.123Z,99.90
2023-06-02T02:40:56.794Z,99.90
2023-06-02T02:43:29.617Z,99.90
2023-06-02T02:45:59.978Z,99.90
2023-06-02T02:48:30.930Z,99.90
2023-06-02T02:51:01.218Z,99.90
2023-06-02T02:53:32.477Z,99.90
2023-06-02T02:56:05.069Z,99.90
2023-06-02T02:58:38.577Z,99.90
2023-06-02T03:01:16.832Z,99.90
2023-06-02T03:03:48.399Z,99.90
2023-06-02T03:06:19.996Z,99.90
2023-06-02T03:08:51.517Z,99.90
2023-06-02T03:11:23.061Z,99.90
2023-06-02T03:13:57.056Z,99.90
2023-06-02T03:16:29.595Z,99.90
2023-06-02T03:19:04.445Z,99.90
2023-06-02T03:21:43.156Z,99.90
2023-06-02T03:24:15.894Z,99.90
2023-06-02T03:26:49.338Z,99.90
2023-06-02T03:29:22.819Z,99.90
2023-06-02T03:31:55.895Z,99.90
2023-06-02T03:34:31.359Z,99.90
2023-06-02T03:37:04.333Z,99.90
2023-06-02T03:39:35.009Z,99.90
2023-06-02T03:42:05.557Z,99.90
2023-06-02T03:44:38.106Z,99.90
2023-06-02T03:47:08.686Z,99.90
2023-06-02T03:49:39.407Z,99.90
2023-06-02T03:52:12.029Z,99.90
2023-06-02T03:54:42.161Z,99.90
2023-06-02T03:57:12.569Z,99.90
2023-06-02T03:59:45.195Z,99.90
2023-06-02T04:02:15.506Z,99.90
2023-06-02T04:04:46.049Z,99.90
2023-06-02T04:07:16.830Z,99.90
2023-06-02T04:09:46.844Z,99.90
2023-06-02T04:12:17.668Z,99.90
2023-06-02T04:14:50.714Z,99.90
2023-06-02T04:17:21.158Z,99.90
2023-06-02T04:19:51.134Z,99.90
2023-06-02T04:22:21.228Z,99.90
2023-06-02T04:24:51.671Z,99.90
2023-06-02T04:27:21.828Z,99.90
2023-06-02T04:29:55.132Z,99.90
2023-06-02T04:32:25.099Z,99.90
2023-06-02T04:34:55.518Z,96.70
2023-06-02T04:37:26.385Z,92.90
2023-06-02T04:39:56.623Z,45.00
2023-06-02T04:42:27.269Z,1.80
2023-06-02T04:45:02.307Z,35.40
2023-06-02T04:47:33.767Z,96.60
2023-06-02T04:50:03.777Z,88.60
2023-06-02T04:52:34.330Z,1.00
2023-06-02T04:55:04.973Z,1.00
2023-06-02T04:57:35.588Z,1.00
2023-06-02T05:00:10.468Z,1.00
2023-06-02T05:02:41.412Z,1.00
2023-06-02T05:05:13.041Z,1.00
2023-06-02T05:07:43.888Z,1.00
2023-06-02T05:10:15.300Z,1.00
2023-06-02T05:12:48.926Z,1.00
2023-06-02T05:15:22.502Z,1.00
2023-06-02T05:17:53.322Z,1.00
2023-06-02T05:20:25.045Z,1.00
2023-06-02T05:22:55.195Z,1.00
2023-06-02T05:25:25.330Z,1.00
2023-06-02T05:27:55.232Z,1.00
2023-06-02T05:30:28.525Z,1.00
2023-06-02T05:32:59.367Z,1.00
2023-06-02T05:35:31.085Z,1.00
2023-06-02T05:38:01.495Z,1.00
2023-06-02T05:40:32.146Z,1.00
2023-06-02T05:43:02.090Z,1.00
2023-06-02T05:45:35.794Z,1.00
2023-06-02T05:48:06.339Z,1.00
2023-06-02T05:50:38.416Z,1.00
2023-06-02T05:53:08.904Z,1.00
2023-06-02T05:55:39.683Z,1.00
2023-06-02T05:58:12.016Z,1.00
2023-06-02T06:00:44.871Z,1.00
2023-06-02T06:03:15.302Z,1.00
2023-06-02T06:05:46.666Z,1.00
2023-06-02T06:08:16.657Z,1.00
2023-06-02T06:10:46.963Z,1.00
2023-06-02T06:13:19.792Z,1.00
2023-06-02T06:15:54.448Z,1.00
2023-06-02T06:18:24.879Z,1.00
2023-06-02T06:20:55.473Z,1.00
2023-06-02T06:23:29.074Z,1.00
2023-06-02T06:25:59.554Z,1.00
2023-06-02T06:28:30.465Z,1.00
2023-06-02T06:31:05.460Z,1.00
2023-06-02T06:33:36.263Z,1.00
2023-06-02T06:36:06.466Z,1.00
2023-06-02T06:38:37.132Z,1.00
2023-06-02T06:41:07.571Z,1.00
2023-06-02T06:43:37.609Z,1.00
2023-06-02T06:46:22.037Z,1.00
2023-06-02T06:48:54.515Z,1.00
2023-06-02T06:51:24.826Z,1.00
2023-06-02T06:53:55.086Z,1.00
2023-06-02T06:56:25.166Z,1.00
2023-06-02T06:58:55.508Z,99.90
2023-06-02T07:01:27.977Z,1.00
2023-06-02T07:03:57.902Z,1.00
2023-06-02T07:06:28.055Z,1.00
2023-06-02T07:09:10.006Z,1.00
2023-06-02T07:11:39.926Z,1.00
2023-06-02T07:14:16.031Z,1.00
2023-06-02T07:16:55.452Z,1.00
2023-06-02T07:19:25.577Z,1.00
2023-06-02T07:21:56.201Z,1.00
2023-06-02T07:24:26.131Z,99.90
2023-06-02T07:26:56.406Z,99.90
2023-06-02T07:29:26.464Z,99.90
2023-06-02T07:31:59.076Z,99.90
2023-06-02T07:34:29.259Z,99.90
2023-06-02T07:37:01.882Z,99.90
2023-06-02T07:55:37.099Z,1.00
2023-06-02T08:28:08.974Z,99.90
2023-06-02T08:31:22.716Z,99.90
2023-06-02T08:33:53.441Z,99.90
2023-06-02T08:36:24.655Z,99.90
2023-06-02T08:38:55.466Z,99.90
2023-06-02T08:41:28.221Z,99.90
2023-06-02T08:43:58.767Z,99.90
2023-06-02T08:46:31.799Z,99.90
2023-06-02T08:49:03.963Z,99.90
2023-06-02T08:51:42.185Z,99.90
2023-06-02T08:54:14.823Z,99.90
2023-06-02T08:56:45.492Z,99.90
2023-06-02T08:59:16.782Z,99.90
2023-06-02T09:01:49.753Z,99.90
2023-06-02T09:04:21.227Z,99.90
2023-06-02T09:06:52.649Z,99.90
2023-06-02T09:09:22.600Z,99.90
2023-06-02T09:12:01.751Z,99.90
2023-06-02T09:14:31.915Z,99.90
2023-06-02T09:17:04.500Z,99.90
2023-06-02T09:19:52.433Z,99.90
2023-06-02T09:22:22.439Z,99.90
2023-06-02T09:24:52.725Z,99.90
2023-06-02T09:27:25.831Z,99.90
2023-06-02T09:30:02.266Z,99.90
2023-06-02T09:32:40.623Z,99.90
2023-06-02T09:35:11.611Z,99.90
2023-06-02T09:37:58.626Z,99.90
2023-06-02T09:40:34.677Z,99.90
2023-06-02T09:43:07.087Z,99.90
2023-06-02T09:45:38.103Z,99.90
2023-06-02T09:48:24.188Z,99.90
2023-06-02T09:50:54.553Z,99.90
2023-06-02T09:53:25.135Z,99.90
2023-06-02T09:55:55.494Z,99.90
2023-06-02T09:58:25.402Z,99.90
2023-06-02T10:00:55.319Z,99.90
2023-06-02T10:03:27.945Z,99.90
2023-06-02T10:06:08.669Z,99.90
2023-06-02T10:08:45.936Z,99.90
2023-06-02T10:11:23.243Z,99.90
2023-06-02T10:14:18.522Z,99.90
2023-06-02T10:17:05.315Z,99.90
2023-06-02T10:19:59.198Z,99.90
2023-06-02T10:22:49.836Z,99.90
2023-06-02T10:25:29.303Z,99.90
2023-06-02T10:27:59.550Z,99.90
2023-06-02T10:30:29.647Z,99.90
2023-06-02T10:32:59.697Z,99.90
2023-06-02T10:36:01.604Z,99.90
2023-06-02T10:38:33.387Z,99.90
2023-06-02T10:41:03.899Z,99.90
2023-06-02T10:43:36.308Z,99.90
2023-06-02T10:46:23.078Z,99.90
2023-06-02T10:48:53.906Z,99.90
2023-06-02T10:51:26.475Z,99.90
2023-06-02T10:54:18.121Z,99.90
2023-06-02T10:56:49.181Z,99.90
2023-06-02T10:59:36.015Z,99.90
2023-06-02T11:02:07.003Z,99.90
2023-06-02T11:04:37.737Z,99.90
2023-06-02T11:07:20.171Z,99.90
2023-06-02T11:09:52.953Z,99.90
2023-06-02T11:12:24.124Z,99.90
2023-06-02T11:15:21.820Z,99.90
2023-06-02T11:17:52.615Z,99.90
2023-06-02T11:20:23.292Z,99.90
2023-06-02T11:23:06.761Z,99.90
2023-06-02T11:25:36.924Z,99.90
2023-06-02T11:28:06.798Z,99.90
2023-06-02T11:30:36.930Z,99.90
2023-06-02T11:33:06.991Z,99.90
2023-06-02T11:35:37.416Z,99.90
2023-06-02T11:38:13.041Z,99.90
2023-06-02T11:40:42.986Z,99.90
2023-06-02T11:43:12.861Z,99.90
2023-06-02T11:45:42.712Z,99.90
2023-06-02T11:48:13.728Z,99.90
2023-06-02T11:50:43.840Z,99.90
2023-06-02T11:53:19.538Z,99.90
2023-06-02T11:55:49.777Z,99.90
2023-06-02T11:58:29.522Z,99.90
2023-06-02T12:01:11.114Z,99.90
2023-06-02T12:03:41.074Z,99.90
2023-06-02T12:06:17.019Z,99.90
2023-06-02T12:08:50.183Z,99.90
2023-06-02T12:11:28.878Z,99.90
2023-06-02T12:14:03.269Z,99.90
2023-06-02T12:16:33.434Z,99.90
2023-06-02T12:19:16.651Z,99.90
2023-06-02T12:21:47.857Z,99.90
2023-06-02T12:24:39.003Z,99.90
2023-06-02T12:27:11.787Z,99.90
2023-06-02T12:29:41.729Z,99.90
2023-06-02T12:32:12.314Z,99.90
2023-06-02T12:34:43.363Z,99.90
2023-06-02T12:37:19.539Z,99.90
2023-06-02T12:39:52.223Z,99.90
2023-06-02T12:42:22.124Z,99.90
2023-06-02T12:44:54.031Z,99.90
2023-06-02T12:47:25.447Z,99.90
2023-06-02T12:49:56.161Z,99.90
2023-06-02T12:52:26.101Z,99.90
2023-06-02T12:54:58.572Z,99.90
2023-06-02T12:57:28.492Z,99.90
2023-06-02T12:59:58.388Z,99.90
2023-06-02T13:02:29.200Z,99.90
2023-06-02T13:04:59.284Z,99.90
2023-06-02T13:07:29.272Z,99.90
2023-06-02T13:10:01.780Z,99.90
2023-06-02T13:12:31.859Z,99.90
2023-06-02T13:15:02.100Z,99.90
2023-06-02T13:17:32.020Z,99.90
2023-06-02T13:20:02.049Z,99.90
2023-06-02T13:22:32.121Z,99.90
2023-06-02T13:25:04.861Z,99.90
2023-06-02T13:30:14.470Z,99.90
2023-06-02T13:32:44.721Z,99.90
2023-06-02T13:35:15.605Z,99.90
2023-06-02T13:37:46.163Z,99.90
2023-06-02T13:40:19.303Z,99.90
2023-06-02T13:42:49.387Z,99.90
2023-06-02T13:45:19.436Z,99.90
2023-06-02T13:47:49.403Z,99.90
2023-06-02T13:50:20.732Z,99.90
2023-06-02T13:52:50.627Z,99.90
2023-06-02T13:55:23.670Z,99.90
2023-06-02T13:57:53.580Z,99.90
2023-06-02T14:00:24.523Z,99.90
2023-06-02T14:02:54.595Z,99.90
2023-06-02T14:05:24.505Z,99.90
2023-06-02T14:07:54.386Z,99.90
2023-06-02T14:10:27.912Z,99.90
2023-06-02T14:12:57.950Z,99.90
2023-06-02T14:15:28.166Z,99.90
2023-06-02T14:17:58.110Z,99.90
2023-06-02T14:20:28.052Z,99.90
2023-06-02T14:22:57.955Z,99.90
2023-06-02T14:25:30.393Z,99.90
2023-06-02T14:28:00.536Z,96.20
2023-06-02T14:30:30.384Z,99.90
2023-06-02T14:33:00.287Z,99.90
2023-06-02T14:35:30.201Z,99.90
2023-06-02T14:38:00.301Z,98.00
2023-06-02T14:40:32.714Z,99.90
2023-06-02T14:43:03.082Z,99.90
2023-06-02T14:45:35.973Z,99.90
2023-06-02T14:48:06.172Z,99.90
2023-06-02T14:50:36.224Z,99.90
2023-06-02T14:53:06.199Z,99.90
2023-06-02T14:55:39.460Z,99.90
2023-06-02T14:58:09.420Z,99.90
2023-06-02T15:00:39.515Z,99.90
2023-06-02T15:03:09.592Z,99.90
2023-06-02T15:05:40.063Z,99.90
2023-06-02T15:08:09.946Z,99.90
2023-06-02T15:10:42.716Z,99.90
2023-06-02T15:13:12.664Z,99.90
2023-06-02T15:15:42.933Z,99.90
2023-06-02T15:18:12.889Z,99.90
2023-06-02T15:20:42.994Z,99.90
2023-06-02T15:23:12.867Z,99.90
2023-06-02T15:25:45.503Z,99.90
2023-06-02T15:28:15.613Z,99.90
2023-06-02T15:30:45.497Z,99.90
2023-06-02T15:33:15.481Z,99.90
2023-06-02T15:35:45.679Z,99.90
2023-06-02T15:38:16.054Z,99.90
2023-06-02T15:40:48.494Z,99.90
2023-06-02T15:43:18.462Z,99.90
2023-06-02T15:45:48.341Z,99.90
2023-06-02T15:48:18.320Z,99.90
2023-06-02T15:50:48.168Z,99.90
2023-06-02T15:53:18.420Z,99.90
2023-06-02T15:55:51.069Z,99.90
2023-06-02T15:58:21.041Z,99.90
2023-06-02T16:00:51.261Z,99.90
2023-06-02T16:03:21.199Z,99.90
2023-06-02T16:05:53.676Z,99.90
2023-06-02T16:08:23.527Z,99.90
2023-06-02T16:10:56.480Z,99.90
2023-06-02T16:13:26.406Z,99.90
2023-06-02T16:15:56.726Z,99.90
2023-06-02T16:18:27.918Z,99.90
2023-06-02T16:20:58.844Z,99.90
2023-06-02T16:23:28.704Z,99.90
2023-06-02T16:26:02.268Z,99.90
2023-06-02T16:28:33.072Z,98.20
2023-06-02T16:31:02.952Z,97.70
2023-06-02T16:33:33.195Z,99.90
2023-06-02T16:36:03.448Z,99.90
2023-06-02T16:38:34.316Z,99.90
2023-06-02T16:41:06.798Z,99.90
2023-06-02T16:43:37.019Z,99.90
2023-06-02T16:46:07.349Z,99.90
2023-06-02T16:48:37.474Z,99.90
2023-06-02T16:51:07.569Z,99.90
2023-06-02T16:53:37.842Z,99.90
2023-06-02T16:56:10.415Z,99.90
2023-06-02T16:58:41.036Z,99.90
2023-06-02T17:01:11.390Z,99.90
2023-06-02T17:03:41.935Z,99.90
2023-06-02T17:06:11.849Z,99.90
2023-06-02T17:08:41.931Z,99.90
2023-06-02T17:11:14.970Z,99.90
2023-06-02T17:13:44.937Z,99.90
2023-06-02T17:16:15.196Z,99.90
2023-06-02T17:18:45.254Z,99.90
2023-06-02T17:21:15.396Z,99.90
2023-06-02T17:23:45.428Z,99.90
2023-06-02T17:26:17.944Z,99.90
2023-06-02T17:28:47.861Z,99.90
2023-06-02T17:31:18.681Z,99.90
2023-06-02T17:33:48.601Z,99.90
2023-06-02T17:36:18.937Z,99.90
2023-06-02T17:38:48.848Z,99.90
2023-06-02T17:41:21.973Z,97.20
2023-06-02T17:43:52.804Z,95.30
2023-06-02T17:46:22.755Z,93.80
2023-06-02T17:48:52.881Z,95.40
2023-06-02T17:51:23.903Z,98.10
2023-06-02T17:53:55.339Z,99.90
2023-06-02T17:56:28.113Z,99.90
2023-06-02T17:58:59.579Z,99.90
2023-06-02T18:01:30.337Z,99.90
2023-06-02T18:04:00.728Z,99.90
2023-06-02T18:06:31.055Z,99.90
2023-06-02T18:09:02.567Z,98.50
2023-06-02T18:11:35.048Z,99.90
2023-06-02T18:14:04.882Z,93.10
2023-06-02T18:16:34.908Z,93.50
2023-06-02T18:19:04.778Z,88.50
2023-06-02T18:21:35.066Z,86.70
2023-06-02T18:24:04.965Z,87.10
2023-06-02T18:26:37.948Z,82.70
2023-06-02T18:29:07.827Z,74.90
2023-06-02T18:31:38.300Z,74.30
2023-06-02T18:34:08.391Z,68.50
2023-06-02T18:36:38.704Z,69.40
2023-06-02T18:39:08.596Z,58.40
2023-06-02T18:41:41.514Z,57.00
2023-06-02T18:44:11.458Z,48.50
2023-06-02T18:46:41.382Z,54.40
2023-06-02T18:49:11.922Z,61.70
2023-06-02T18:51:41.930Z,75.80
2023-06-02T18:54:11.850Z,87.00
2023-06-02T18:56:44.270Z,94.40
2023-06-02T18:59:14.451Z,99.90
2023-06-02T19:01:45.165Z,99.90
2023-06-02T19:04:15.700Z,99.90
2023-06-02T19:06:46.308Z,99.90
2023-06-02T19:09:16.741Z,99.90
2023-06-02T19:11:49.656Z,99.90
2023-06-02T19:14:19.722Z,99.90
2023-06-02T19:16:49.708Z,99.90
2023-06-02T19:19:20.228Z,99.90
2023-06-02T19:21:50.305Z,99.90
2023-06-02T19:24:20.407Z,99.90
2023-06-02T19:26:53.184Z,99.90
2023-06-02T19:29:24.767Z,99.90
2023-06-02T19:31:54.962Z,99.90
2023-06-02T19:34:24.911Z,99.90
2023-06-02T19:36:55.250Z,99.90
2023-06-02T19:39:25.236Z,99.90
2023-06-02T19:41:57.900Z,99.90
2023-06-02T19:44:28.506Z,99.90
2023-06-02T19:46:58.892Z,1.00
2023-06-02T19:49:29.582Z,99.90
2023-06-02T19:52:00.105Z,99.90
2023-06-02T19:54:30.175Z,1.00
2023-06-02T19:57:02.620Z,1.00
2023-06-02T19:59:32.827Z,1.00
2023-06-02T20:02:02.814Z,1.00
2023-06-02T20:04:32.956Z,1.00
2023-06-02T20:07:05.089Z,99.90
2023-06-02T20:09:36.630Z,1.00
2023-06-02T20:12:10.332Z,1.00
2023-06-02T20:14:41.103Z,1.00
2023-06-02T20:17:11.265Z,1.00
2023-06-02T20:19:42.837Z,1.00
2023-06-02T20:22:14.182Z,1.00
2023-06-02T20:24:44.011Z,1.00
2023-06-02T20:27:16.986Z,99.90
2023-06-02T20:29:46.938Z,99.90
2023-06-02T20:32:16.975Z,99.90
2023-06-02T20:34:47.024Z,99.90
2023-06-02T20:37:17.109Z,99.90
2023-06-02T20:39:47.157Z,99.90
2023-06-02T20:42:19.869Z,99.90
2023-06-02T20:44:50.072Z,99.90
2023-06-02T20:47:20.313Z,99.90
2023-06-02T20:49:50.253Z,99.90
2023-06-02T20:52:20.515Z,99.90
2023-06-02T20:54:51.213Z,99.90
2023-06-02T20:57:23.749Z,99.90
2023-06-02T20:59:53.835Z,99.90
2023-06-02T21:02:24.622Z,99.90
2023-06-02T21:04:55.560Z,99.90
2023-06-02T21:07:26.159Z,99.90
2023-06-02T21:09:56.215Z,99.90
2023-06-02T21:12:28.652Z,99.90
2023-06-02T21:14:58.529Z,96.20
2023-06-02T21:17:28.428Z,87.90
2023-06-02T21:19:58.784Z,82.30
2023-06-02T21:22:28.663Z,74.00
2023-06-02T21:24:59.538Z,68.20
2023-06-02T21:27:32.270Z,52.90
2023-06-02T21:30:02.183Z,26.40
2023-06-02T21:32:32.087Z,20.90
2023-06-02T21:35:02.618Z,7.10
2023-06-02T21:37:32.507Z,1.00
2023-06-02T21:40:02.372Z,1.00
2023-06-02T21:42:35.081Z,1.00
2023-06-02T21:45:05.001Z,1.00
2023-06-02T21:47:35.202Z,1.00
2023-06-02T21:50:05.745Z,1.00
2023-06-02T21:52:35.758Z,1.00
2023-06-02T21:55:05.873Z,1.00
2023-06-02T21:57:38.543Z,1.00
2023-06-02T22:00:13.135Z,1.00
2023-06-02T22:02:44.849Z,1.00
2023-06-02T22:05:16.949Z,1.00
2023-06-02T22:07:46.818Z,1.00
2023-06-02T22:10:17.174Z,1.00
2023-06-02T22:12:50.886Z,1.00
2023-06-02T22:15:22.210Z,1.00
2023-06-02T22:17:52.120Z,1.00
2023-06-02T22:20:22.494Z,1.00
2023-06-02T22:22:52.362Z,1.00
2023-06-02T22:25:22.986Z,1.00
2023-06-02T22:27:55.680Z,1.00
2023-06-02T22:30:25.593Z,1.00
2023-06-02T22:32:56.015Z,1.00
2023-06-02T22:35:26.069Z,1.00
2023-06-02T22:37:57.739Z,1.00
2023-06-02T22:40:27.628Z,1.00
2023-06-02T22:43:00.387Z,1.00
2023-06-02T22:45:30.231Z,1.00
2023-06-02T22:48:01.778Z,1.00
2023-06-02T22:50:32.233Z,1.00
2023-06-02T22:53:03.128Z,1.00
2023-06-02T22:55:33.010Z,1.00
2023-06-02T22:58:05.811Z,1.00
2023-06-02T23:00:36.555Z,1.00
2023-06-02T23:03:06.565Z,1.00
2023-06-02T23:05:36.794Z,1.00
2023-06-02T23:08:06.650Z,1.00
2023-06-02T23:10:37.521Z,1.00
2023-06-02T23:13:09.952Z,1.00
2023-06-02T23:15:40.177Z,1.00
2023-06-02T23:18:12.132Z,1.00
2023-06-02T23:20:43.144Z,1.00
2023-06-02T23:23:13.148Z,1.00
2023-06-02T23:25:43.255Z,1.00
2023-06-02T23:28:16.002Z,1.00
2023-06-02T23:30:46.239Z,1.00
2023-06-02T23:33:16.109Z,1.00
2023-06-02T23:35:46.347Z,1.00
2023-06-02T23:38:16.541Z,1.00
2023-06-02T23:40:46.640Z,1.00
2023-06-02T23:43:19.111Z,1.00
2023-06-02T23:45:48.984Z,1.00
2023-06-02T23:48:19.290Z,1.00
2023-06-02T23:50:49.132Z,1.00
2023-06-02T23:53:19.243Z,1.00
2023-06-02T23:55:49.956Z,1.00
2023-06-02T23:58:22.877Z,1.00
